Sea Explorer — 5BQC3 — position and weather

sailwx.info

Track history (hours):
 
Tides and Currents Weather Stations Pressure Air Temp Water Temp Dewpoint Dewpoint Depression Visibility Wind Speed Wind Dir Waves Ship Positions

Sea Explorer

Last reported at 2017-Oct-16 01:44 UTC. Time now 2017-Oct-18 02:37 UTC.
Position N 36°01' W 005°04'.

Length 110 m; draft 8 m.

Type: Cargo ship. MMSI: 210112000.

Date/timePositionNaut miles runAvg speedWind from/ knotsBaromVisibWave heightAir tempDewpointWater temp
2017-Oct-16 01:44N 36°01' W 005°04'311.9
2017-Oct-16 01:30N 36°00' W 005°07'612.1
2017-Oct-16 01:01N 35°59' W 005°14'612.0
2017-Oct-16 00:31N 35°59' W 005°22'611.6
2017-Oct-16 00:01N 35°57' W 005°29'610.7
2017-Oct-15 23:29N 35°56' W 005°35'6 9.6
2017-Oct-15 22:53N 35°55' W 005°43'4 8.7
2017-Oct-15 22:25N 35°55' W 005°47'80 9.4
2017-Oct-15 13:56N 36°09' W 007°25'510.4
2017-Oct-15 13:30N 36°10' W 007°30'510.3
2017-Oct-15 13:00N 36°12' W 007°36'1010.3
2017-Oct-15 12:04N 36°14' W 007°47'110.0
2017-Oct-15 12:00N 36°15' W 007°48'5 9.8
2017-Oct-15 11:31N 36°16' W 007°54'510.4
2017-Oct-15 11:01N 36°17' W 008°00'911.1
2017-Oct-15 10:10N 36°20' W 008°11'611.0
2017-Oct-15 09:39N 36°21' W 008°18'211.0
2017-Oct-15 09:30N 36°21' W 008°20'511.0
2017-Oct-15 09:00N 36°23' W 008°27'511.0
2017-Oct-15 08:31N 36°24' W 008°33'611.1
2017-Oct-15 08:00N 36°26' W 008°40'611.2
2017-Oct-15 07:31N 36°28' W 008°46'611.4
2017-Oct-15 07:01N 36°29' W 008°53'612.1
2017-Oct-15 06:31N 36°31' W 009°01'612.4
2017-Oct-15 06:00N 36°33' W 009°08'612.0
2017-Oct-15 05:30N 36°34' W 009°15'611.6
2017-Oct-15 05:01N 36°38' W 009°21'611.8
2017-Oct-15 04:31N 36°42' W 009°26'611.6
2017-Oct-15 04:00N 36°47' W 009°31'711.9
2017-Oct-15 03:22N 36°54' W 009°34'512.1
2017-Oct-15 02:57N 36°59' W 009°35'611.9
2017-Oct-15 02:27N 37°05' W 009°37'511.9
2017-Oct-15 02:00N 37°10' W 009°38'611.9
2017-Oct-15 01:30N 37°15' W 009°40'611.6
2017-Oct-15 01:00N 37°21' W 009°42'611.4
2017-Oct-15 00:27N 37°27' W 009°43'511.6
2017-Oct-15 00:01N 37°32' W 009°45'611.6
2017-Oct-14 23:31N 37°38' W 009°46'611.5
2017-Oct-14 23:00N 37°44' W 009°48'611.6
2017-Oct-14 22:30N 37°49' W 009°49'611.8
2017-Oct-14 22:01N 37°55' W 009°51'612.0
2017-Oct-14 21:30N 38°01' W 009°52'612.0
2017-Oct-14 21:01N 38°07' W 009°54'611.5
2017-Oct-14 20:31N 38°12' W 009°56'611.7
2017-Oct-14 20:01N 38°18' W 009°58'611.7
2017-Oct-14 19:31N 38°24' W 009°60'611.5
2017-Oct-14 19:01N 38°29' W 010°02'612.0
2017-Oct-14 18:31N 38°35' W 010°03'611.9
2017-Oct-14 18:01N 38°41' W 010°05'611.8
2017-Oct-14 17:30N 38°47' W 010°06'611.4
2017-Oct-14 17:00N 38°53' W 010°06'611.2
2017-Oct-14 16:31N 38°58' W 010°06'611.9
2017-Oct-14 16:00N 39°04' W 010°06'611.7
2017-Oct-14 15:30N 39°10' W 010°06'611.8
2017-Oct-14 15:00N 39°16' W 010°06'611.7
2017-Oct-14 14:30N 39°22' W 010°06'10111.9
2017-Oct-14 05:58N 41°03' W 010°06'811.9
2017-Oct-14 05:18N 41°11' W 010°06'6211.9
2017-Oct-14 00:08N 42°12' W 010°06'1411.5
2017-Oct-13 22:57N 42°26' W 010°06'511.4
2017-Oct-13 22:29N 42°31' W 010°06'911.7
2017-Oct-13 21:40N 42°41' W 010°06'44611.2
2017-Oct-12 05:53N 49°13' W 004°58'6011.3
2017-Oct-12 00:33N 49°42' W 003°38'110.4
2017-Oct-12 00:30N 49°42' W 003°37'510.2
2017-Oct-11 23:59N 49°45' W 003°30'5 9.9
2017-Oct-11 23:30N 49°47' W 003°23'5 9.7
2017-Oct-11 22:59N 49°50' W 003°17'5 9.6
2017-Oct-11 22:31N 49°52' W 003°10'5 9.5
2017-Oct-11 21:59N 49°54' W 003°04'5 9.7
2017-Oct-11 21:30N 49°56' W 002°57'5 9.8
2017-Oct-11 20:59N 49°58' W 002°50'710.2
2017-Oct-11 20:21N 50°00' W 002°40'201 9.9
2017-Oct-11 00:01N 51°31' E 002°04'712.7
2017-Oct-10 23:30N 51°36' E 002°11'612.7
2017-Oct-10 23:00N 51°40' E 002°18'5710.4
2017-Oct-10 17:31N 52°25' E 003°16'0 9.1
2017-Oct-10 17:29N 52°25' E 003°16'5 9.0
2017-Oct-10 16:58N 52°29' E 003°21'4 9.1
2017-Oct-10 16:29N 52°32' E 003°25'39811.2
2017-Oct-09 05:03N 57°47' E 010°30'111.8
2017-Oct-09 05:00N 57°47' E 010°31'612.0
2017-Oct-09 04:30N 57°48' E 010°42'5 9.6
2017-Oct-09 04:01N 57°44' E 010°46'611.1
2017-Oct-09 03:31N 57°40' E 010°39'1 1.1
2017-Oct-09 02:58N 57°40' E 010°38'0 0.1
2017-Oct-09 02:13N 57°40' E 010°38'0 0.1
2017-Oct-09 01:58N 57°40' E 010°38'0 0.0
2017-Oct-09 01:25N 57°40' E 010°38'0 0.1
2017-Oct-09 00:55N 57°40' E 010°38'0 0.0
2017-Oct-09 00:22N 57°40' E 010°38'0 0.0
2017-Oct-08 23:10N 57°40' E 010°38'0 0.1
2017-Oct-08 22:58N 57°40' E 010°38'0 0.0
2017-Oct-08 20:58N 57°40' E 010°38'0 0.0
2017-Oct-08 20:28N 57°40' E 010°38'0 0.1
2017-Oct-08 19:58N 57°40' E 010°38'0 0.4
2017-Oct-08 19:30N 57°40' E 010°38'3 5.0
2017-Oct-08 19:00N 57°38' E 010°43'510.2
2017-Oct-08 18:31N 57°37' E 010°51'611.7
2017-Oct-08 18:00N 57°34' E 011°02'611.6
2017-Oct-08 17:30N 57°32' E 011°11'611.3
2017-Oct-08 17:00N 57°30' E 011°21'510.5
2017-Oct-08 16:30N 57°26' E 011°27'510.9
2017-Oct-08 16:00N 57°21' E 011°31'510.6
2017-Oct-08 15:31N 57°16' E 011°34'610.5
2017-Oct-08 14:59N 57°10' E 011°37'510.6
2017-Oct-08 14:29N 57°05' E 011°40'112 9.2
2017-Oct-08 02:16N 55°15' E 011°06'2 9.3
2017-Oct-08 02:00N 55°12' E 011°06'5 9.5
2017-Oct-08 01:30N 55°08' E 011°03'5 9.9
2017-Oct-08 01:00N 55°03' E 011°02'510.4
2017-Oct-08 00:31N 54°58' E 011°00'5 9.4
2017-Oct-08 00:01N 54°55' E 010°55'5 9.4
2017-Oct-07 23:31N 54°50' E 010°53'5 9.8
2017-Oct-07 23:00N 54°45' E 010°53'5 9.5
2017-Oct-07 22:30N 54°41' E 010°57'510.5
2017-Oct-07 22:00N 54°38' E 011°04'510.1
2017-Oct-07 21:31N 54°36' E 011°12'4 9.0
2017-Oct-07 21:01N 54°34' E 011°19'510.0
2017-Oct-07 20:30N 54°32' E 011°27'510.2
2017-Oct-07 20:01N 54°30' E 011°35'510.3
2017-Oct-07 19:30N 54°28' E 011°43'7 9.5
2017-Oct-07 18:47N 54°26' E 011°55'9 9.4
2017-Oct-07 17:47N 54°27' E 012°11'3 9.2
2017-Oct-07 17:30N 54°29' E 012°13'5 9.1
2017-Oct-07 17:01N 54°34' E 012°15'4 8.9
2017-Oct-07 16:31N 54°37' E 012°19'5210.1
2017-Oct-07 11:24N 54°59' E 013°40'1611.0
2017-Oct-07 09:55N 55°06' E 014°06'910.7
2017-Oct-07 09:06N 55°12' E 014°16'110.7
2017-Oct-07 09:00N 55°13' E 014°17'610.8
2017-Oct-07 08:29N 55°17' E 014°24'510.8
2017-Oct-07 08:00N 55°21' E 014°30'510.8
2017-Oct-07 07:30N 55°25' E 014°36'610.6
2017-Oct-07 06:57N 55°29' E 014°44'711.1
2017-Oct-07 06:22N 55°32' E 014°54'611.2
2017-Oct-07 05:51N 55°35' E 015°03'411.4
2017-Oct-07 05:30N 55°37' E 015°08'611.4
2017-Oct-07 05:00N 55°40' E 015°17'611.4
2017-Oct-07 04:31N 55°43' E 015°26'611.4
2017-Oct-07 04:00N 55°46' E 015°35'611.4
2017-Oct-07 03:30N 55°49' E 015°43'611.3
2017-Oct-07 03:00N 55°51' E 015°52'611.3
2017-Oct-07 02:30N 55°54' E 016°01'611.3
2017-Oct-07 02:00N 55°57' E 016°10'611.5
2017-Oct-07 01:30N 56°00' E 016°18'611.4
2017-Oct-07 01:01N 56°03' E 016°27'611.5
2017-Oct-07 00:30N 56°06' E 016°35'611.4
2017-Oct-07 00:01N 56°10' E 016°43'611.8
2017-Oct-06 23:30N 56°16' E 016°46'611.8
2017-Oct-06 23:00N 56°21' E 016°49'55 7.4
2017-Oct-06 15:33N 57°16' E 016°42'111.4
2017-Oct-06 15:28N 57°16' E 016°41'4 9.5
2017-Oct-06 15:01N 57°17' E 016°33'2 4.5
2017-Oct-06 14:30N 57°16' E 016°29'0 0.0
2017-Oct-06 14:00N 57°16' E 016°29'0 0.0
2017-Oct-06 13:30N 57°16' E 016°29'0 0.0
2017-Oct-06 13:00N 57°16' E 016°29'0 0.0
2017-Oct-06 12:30N 57°16' E 016°29'0 0.0
2017-Oct-06 12:00N 57°16' E 016°29'0 0.0
2017-Oct-06 11:30N 57°16' E 016°29'0 0.0
2017-Oct-06 11:00N 57°16' E 016°29'0 0.0
2017-Oct-06 10:30N 57°16' E 016°29'0 0.0
2017-Oct-06 10:00N 57°16' E 016°29'0 0.0
2017-Oct-06 09:30N 57°16' E 016°29'0 0.0
2017-Oct-06 09:00N 57°16' E 016°29'0 0.0
2017-Oct-06 08:30N 57°16' E 016°29'0 0.0
2017-Oct-06 08:00N 57°16' E 016°29'0 0.0
2017-Oct-06 07:30N 57°16' E 016°29'0 0.0
2017-Oct-06 07:00N 57°16' E 016°29'0 0.0
2017-Oct-06 06:30N 57°16' E 016°29'0 0.0
2017-Oct-06 06:00N 57°16' E 016°29'0 0.0
2017-Oct-06 05:30N 57°16' E 016°29'0 0.0
2017-Oct-06 05:00N 57°16' E 016°29'0 0.0
2017-Oct-06 04:30N 57°16' E 016°29'0 0.0
2017-Oct-06 04:00N 57°16' E 016°29'0 0.0
2017-Oct-06 03:30N 57°16' E 016°29'0 0.0
2017-Oct-06 03:00N 57°16' E 016°29'0 0.0
2017-Oct-06 02:30N 57°16' E 016°29'0 0.0
2017-Oct-06 02:00N 57°16' E 016°29'  
Track history (hours):
 
Tides and Currents Weather Stations Pressure Air Temp Water Temp Dewpoint Dewpoint Depression Visibility Wind Speed Wind Dir Waves Ship Positions

Sea Explorer

Last reported at 2017-Oct-16 01:44 UTC. Time now 2017-Oct-18 02:37 UTC.
Position N 36°01' W 005°04'.

Length 110 m; draft 8 m.

Type: Cargo ship. MMSI: 210112000.

Date/timePositionNaut miles runAvg speedWind from/ knotsBaromVisibWave heightAir tempDewpointWater temp
2017-Oct-16 01:44N 36°01' W 005°04'311.9
2017-Oct-16 01:30N 36°00' W 005°07'612.1
2017-Oct-16 01:01N 35°59' W 005°14'612.0
2017-Oct-16 00:31N 35°59' W 005°22'611.6
2017-Oct-16 00:01N 35°57' W 005°29'610.7
2017-Oct-15 23:29N 35°56' W 005°35'6 9.6
2017-Oct-15 22:53N 35°55' W 005°43'4 8.7
2017-Oct-15 22:25N 35°55' W 005°47'80 9.4
2017-Oct-15 13:56N 36°09' W 007°25'510.4
2017-Oct-15 13:30N 36°10' W 007°30'510.3
2017-Oct-15 13:00N 36°12' W 007°36'1010.3
2017-Oct-15 12:04N 36°14' W 007°47'110.0
2017-Oct-15 12:00N 36°15' W 007°48'5 9.8
2017-Oct-15 11:31N 36°16' W 007°54'510.4
2017-Oct-15 11:01N 36°17' W 008°00'911.1
2017-Oct-15 10:10N 36°20' W 008°11'611.0
2017-Oct-15 09:39N 36°21' W 008°18'211.0
2017-Oct-15 09:30N 36°21' W 008°20'511.0
2017-Oct-15 09:00N 36°23' W 008°27'511.0
2017-Oct-15 08:31N 36°24' W 008°33'611.1
2017-Oct-15 08:00N 36°26' W 008°40'611.2
2017-Oct-15 07:31N 36°28' W 008°46'611.4
2017-Oct-15 07:01N 36°29' W 008°53'612.1
2017-Oct-15 06:31N 36°31' W 009°01'612.4
2017-Oct-15 06:00N 36°33' W 009°08'612.0
2017-Oct-15 05:30N 36°34' W 009°15'611.6
2017-Oct-15 05:01N 36°38' W 009°21'611.8
2017-Oct-15 04:31N 36°42' W 009°26'611.6
2017-Oct-15 04:00N 36°47' W 009°31'711.9
2017-Oct-15 03:22N 36°54' W 009°34'512.1
2017-Oct-15 02:57N 36°59' W 009°35'611.9
2017-Oct-15 02:27N 37°05' W 009°37'511.9
2017-Oct-15 02:00N 37°10' W 009°38'611.9
2017-Oct-15 01:30N 37°15' W 009°40'611.6
2017-Oct-15 01:00N 37°21' W 009°42'611.4
2017-Oct-15 00:27N 37°27' W 009°43'511.6
2017-Oct-15 00:01N 37°32' W 009°45'611.6
2017-Oct-14 23:31N 37°38' W 009°46'611.5
2017-Oct-14 23:00N 37°44' W 009°48'611.6
2017-Oct-14 22:30N 37°49' W 009°49'611.8
2017-Oct-14 22:01N 37°55' W 009°51'612.0
2017-Oct-14 21:30N 38°01' W 009°52'612.0
2017-Oct-14 21:01N 38°07' W 009°54'611.5
2017-Oct-14 20:31N 38°12' W 009°56'611.7
2017-Oct-14 20:01N 38°18' W 009°58'611.7
2017-Oct-14 19:31N 38°24' W 009°60'611.5
2017-Oct-14 19:01N 38°29' W 010°02'612.0
2017-Oct-14 18:31N 38°35' W 010°03'611.9
2017-Oct-14 18:01N 38°41' W 010°05'611.8
2017-Oct-14 17:30N 38°47' W 010°06'611.4
2017-Oct-14 17:00N 38°53' W 010°06'611.2
2017-Oct-14 16:31N 38°58' W 010°06'611.9
2017-Oct-14 16:00N 39°04' W 010°06'611.7
2017-Oct-14 15:30N 39°10' W 010°06'611.8
2017-Oct-14 15:00N 39°16' W 010°06'611.7
2017-Oct-14 14:30N 39°22' W 010°06'10111.9
2017-Oct-14 05:58N 41°03' W 010°06'811.9
2017-Oct-14 05:18N 41°11' W 010°06'6211.9
2017-Oct-14 00:08N 42°12' W 010°06'1411.5
2017-Oct-13 22:57N 42°26' W 010°06'511.4
2017-Oct-13 22:29N 42°31' W 010°06'911.7
2017-Oct-13 21:40N 42°41' W 010°06'44611.2
2017-Oct-12 05:53N 49°13' W 004°58'6011.3
2017-Oct-12 00:33N 49°42' W 003°38'110.4
2017-Oct-12 00:30N 49°42' W 003°37'510.2
2017-Oct-11 23:59N 49°45' W 003°30'5 9.9
2017-Oct-11 23:30N 49°47' W 003°23'5 9.7
2017-Oct-11 22:59N 49°50' W 003°17'5 9.6
2017-Oct-11 22:31N 49°52' W 003°10'5 9.5
2017-Oct-11 21:59N 49°54' W 003°04'5 9.7
2017-Oct-11 21:30N 49°56' W 002°57'5 9.8
2017-Oct-11 20:59N 49°58' W 002°50'710.2
2017-Oct-11 20:21N 50°00' W 002°40'201 9.9
2017-Oct-11 00:01N 51°31' E 002°04'712.7
2017-Oct-10 23:30N 51°36' E 002°11'612.7
2017-Oct-10 23:00N 51°40' E 002°18'5710.4
2017-Oct-10 17:31N 52°25' E 003°16'0 9.1
2017-Oct-10 17:29N 52°25' E 003°16'5 9.0
2017-Oct-10 16:58N 52°29' E 003°21'4 9.1
2017-Oct-10 16:29N 52°32' E 003°25'39811.2
2017-Oct-09 05:03N 57°47' E 010°30'111.8
2017-Oct-09 05:00N 57°47' E 010°31'612.0
2017-Oct-09 04:30N 57°48' E 010°42'5 9.6
2017-Oct-09 04:01N 57°44' E 010°46'611.1
2017-Oct-09 03:31N 57°40' E 010°39'1 1.1
2017-Oct-09 02:58N 57°40' E 010°38'0 0.1
2017-Oct-09 02:13N 57°40' E 010°38'0 0.1
2017-Oct-09 01:58N 57°40' E 010°38'0 0.0
2017-Oct-09 01:25N 57°40' E 010°38'0 0.1
2017-Oct-09 00:55N 57°40' E 010°38'0 0.0
2017-Oct-09 00:22N 57°40' E 010°38'0 0.0
2017-Oct-08 23:10N 57°40' E 010°38'0 0.1
2017-Oct-08 22:58N 57°40' E 010°38'0 0.0
2017-Oct-08 20:58N 57°40' E 010°38'0 0.0
2017-Oct-08 20:28N 57°40' E 010°38'0 0.1
2017-Oct-08 19:58N 57°40' E 010°38'0 0.4
2017-Oct-08 19:30N 57°40' E 010°38'3 5.0
2017-Oct-08 19:00N 57°38' E 010°43'510.2
2017-Oct-08 18:31N 57°37' E 010°51'611.7
2017-Oct-08 18:00N 57°34' E 011°02'611.6
2017-Oct-08 17:30N 57°32' E 011°11'611.3
2017-Oct-08 17:00N 57°30' E 011°21'510.5
2017-Oct-08 16:30N 57°26' E 011°27'510.9
2017-Oct-08 16:00N 57°21' E 011°31'510.6
2017-Oct-08 15:31N 57°16' E 011°34'610.5
2017-Oct-08 14:59N 57°10' E 011°37'510.6
2017-Oct-08 14:29N 57°05' E 011°40'112 9.2
2017-Oct-08 02:16N 55°15' E 011°06'2 9.3
2017-Oct-08 02:00N 55°12' E 011°06'5 9.5
2017-Oct-08 01:30N 55°08' E 011°03'5 9.9
2017-Oct-08 01:00N 55°03' E 011°02'510.4
2017-Oct-08 00:31N 54°58' E 011°00'5 9.4
2017-Oct-08 00:01N 54°55' E 010°55'5 9.4
2017-Oct-07 23:31N 54°50' E 010°53'5 9.8
2017-Oct-07 23:00N 54°45' E 010°53'5 9.5
2017-Oct-07 22:30N 54°41' E 010°57'510.5
2017-Oct-07 22:00N 54°38' E 011°04'510.1
2017-Oct-07 21:31N 54°36' E 011°12'4 9.0
2017-Oct-07 21:01N 54°34' E 011°19'510.0
2017-Oct-07 20:30N 54°32' E 011°27'510.2
2017-Oct-07 20:01N 54°30' E 011°35'510.3
2017-Oct-07 19:30N 54°28' E 011°43'7 9.5
2017-Oct-07 18:47N 54°26' E 011°55'9 9.4
2017-Oct-07 17:47N 54°27' E 012°11'3 9.2
2017-Oct-07 17:30N 54°29' E 012°13'5 9.1
2017-Oct-07 17:01N 54°34' E 012°15'4 8.9
2017-Oct-07 16:31N 54°37' E 012°19'5210.1
2017-Oct-07 11:24N 54°59' E 013°40'1611.0
2017-Oct-07 09:55N 55°06' E 014°06'910.7
2017-Oct-07 09:06N 55°12' E 014°16'110.7
2017-Oct-07 09:00N 55°13' E 014°17'610.8
2017-Oct-07 08:29N 55°17' E 014°24'510.8
2017-Oct-07 08:00N 55°21' E 014°30'510.8
2017-Oct-07 07:30N 55°25' E 014°36'610.6
2017-Oct-07 06:57N 55°29' E 014°44'711.1
2017-Oct-07 06:22N 55°32' E 014°54'611.2
2017-Oct-07 05:51N 55°35' E 015°03'411.4
2017-Oct-07 05:30N 55°37' E 015°08'611.4
2017-Oct-07 05:00N 55°40' E 015°17'611.4
2017-Oct-07 04:31N 55°43' E 015°26'611.4
2017-Oct-07 04:00N 55°46' E 015°35'611.4
2017-Oct-07 03:30N 55°49' E 015°43'611.3
2017-Oct-07 03:00N 55°51' E 015°52'611.3
2017-Oct-07 02:30N 55°54' E 016°01'611.3
2017-Oct-07 02:00N 55°57' E 016°10'611.5
2017-Oct-07 01:30N 56°00' E 016°18'611.4
2017-Oct-07 01:01N 56°03' E 016°27'611.5
2017-Oct-07 00:30N 56°06' E 016°35'611.4
2017-Oct-07 00:01N 56°10' E 016°43'611.8
2017-Oct-06 23:30N 56°16' E 016°46'611.8
2017-Oct-06 23:00N 56°21' E 016°49'55 7.4
2017-Oct-06 15:33N 57°16' E 016°42'111.4
2017-Oct-06 15:28N 57°16' E 016°41'4 9.5
2017-Oct-06 15:01N 57°17' E 016°33'2 4.5
2017-Oct-06 14:30N 57°16' E 016°29'0 0.0
2017-Oct-06 14:00N 57°16' E 016°29'0 0.0
2017-Oct-06 13:30N 57°16' E 016°29'0 0.0
2017-Oct-06 13:00N 57°16' E 016°29'0 0.0
2017-Oct-06 12:30N 57°16' E 016°29'0 0.0
2017-Oct-06 12:00N 57°16' E 016°29'0 0.0
2017-Oct-06 11:30N 57°16' E 016°29'0 0.0
2017-Oct-06 11:00N 57°16' E 016°29'0 0.0
2017-Oct-06 10:30N 57°16' E 016°29'0 0.0
2017-Oct-06 10:00N 57°16' E 016°29'0 0.0
2017-Oct-06 09:30N 57°16' E 016°29'0 0.0
2017-Oct-06 09:00N 57°16' E 016°29'0 0.0
2017-Oct-06 08:30N 57°16' E 016°29'0 0.0
2017-Oct-06 08:00N 57°16' E 016°29'0 0.0
2017-Oct-06 07:30N 57°16' E 016°29'0 0.0
2017-Oct-06 07:00N 57°16' E 016°29'0 0.0
2017-Oct-06 06:30N 57°16' E 016°29'0 0.0
2017-Oct-06 06:00N 57°16' E 016°29'0 0.0
2017-Oct-06 05:30N 57°16' E 016°29'0 0.0
2017-Oct-06 05:00N 57°16' E 016°29'0 0.0
2017-Oct-06 04:30N 57°16' E 016°29'0 0.0
2017-Oct-06 04:00N 57°16' E 016°29'0 0.0
2017-Oct-06 03:30N 57°16' E 016°29'0 0.0
2017-Oct-06 03:00N 57°16' E 016°29'0 0.0
2017-Oct-06 02:30N 57°16' E 016°29'0 0.0
2017-Oct-06 02:00N 57°16' E 016°29'  

Dump ship's entire track history